createdAt,value
2018-07-09T00:00:13.967Z,17.19
2018-07-09T00:02:42.803Z,17.19
2018-07-09T00:05:11.595Z,17.19
2018-07-09T00:07:41.376Z,17.20
2018-07-09T00:10:10.899Z,17.23
2018-07-09T00:12:39.691Z,17.25
2018-07-09T00:15:09.012Z,17.28
2018-07-09T00:17:38.916Z,17.29
2018-07-09T00:20:08.338Z,17.26
2018-07-09T00:22:37.825Z,17.27
2018-07-09T00:25:06.845Z,17.29
2018-07-09T00:27:35.866Z,17.28
2018-07-09T00:30:06.094Z,17.28
2018-07-09T00:32:35.911Z,17.26
2018-07-09T00:35:05.267Z,17.22
2018-07-09T00:37:35.194Z,17.16
2018-07-09T00:40:04.295Z,17.09
2018-07-09T00:42:33.543Z,17.05
2018-07-09T00:45:02.416Z,17.03
2018-07-09T00:47:31.326Z,17.02
2018-07-09T00:50:00.203Z,17.04
2018-07-09T00:52:30.250Z,17.05
2018-07-09T00:54:59.046Z,17.08
2018-07-09T00:57:28.674Z,17.08
2018-07-09T00:59:57.509Z,17.10
2018-07-09T01:02:26.295Z,17.10
2018-07-09T01:04:55.982Z,17.08
2018-07-09T01:07:25.492Z,17.10
2018-07-09T01:09:54.887Z,17.11
2018-07-09T01:12:23.695Z,17.11
2018-07-09T01:14:53.058Z,17.12
2018-07-09T01:17:22.718Z,17.12
2018-07-09T01:19:52.276Z,17.11
2018-07-09T01:22:21.212Z,17.03
2018-07-09T01:24:50.074Z,17.05
2018-07-09T01:27:18.975Z,17.02
2018-07-09T01:29:47.971Z,17.03
2018-07-09T01:32:17.383Z,17.06
2018-07-09T01:34:47.331Z,17.09
2018-07-09T01:37:16.142Z,17.14
2018-07-09T01:39:44.909Z,17.16
2018-07-09T01:42:13.715Z,17.18
2018-07-09T01:44:42.833Z,17.17
2018-07-09T01:47:11.710Z,17.16
2018-07-09T01:49:40.517Z,17.13
2018-07-09T01:52:10.187Z,17.10
2018-07-09T01:54:38.974Z,17.06
2018-07-09T01:57:08.566Z,17.07
2018-07-09T01:59:38.491Z,17.06
2018-07-09T02:02:08.362Z,17.07
2018-07-09T02:04:37.557Z,17.08
2018-07-09T02:07:08.042Z,17.12
2018-07-09T02:09:38.774Z,17.09
2018-07-09T02:12:07.626Z,17.10
2018-07-09T02:14:38.100Z,17.08
2018-07-09T02:17:07.746Z,17.12
2018-07-09T02:19:37.595Z,17.14
2018-07-09T02:22:06.977Z,17.15
2018-07-09T02:24:36.126Z,17.13
2018-07-09T02:27:05.305Z,17.11
2018-07-09T02:29:35.113Z,17.07
2018-07-09T02:32:04.159Z,17.04
2018-07-09T02:34:34.074Z,17.03
2018-07-09T02:37:02.843Z,17.03
2018-07-09T02:39:31.622Z,17.05
2018-07-09T02:42:00.447Z,17.07
2018-07-09T02:44:29.268Z,17.09
2018-07-09T02:46:58.123Z,17.12
2018-07-09T02:49:26.957Z,17.09
2018-07-09T02:51:56.814Z,17.10
2018-07-09T02:54:25.558Z,17.12
2018-07-09T02:56:55.391Z,17.16
2018-07-09T02:59:25.077Z,17.20
2018-07-09T03:01:53.963Z,17.25
2018-07-09T03:04:22.719Z,17.29
2018-07-09T03:06:51.540Z,17.30
2018-07-09T03:09:21.278Z,17.32
2018-07-09T03:11:50.045Z,17.33
2018-07-09T03:14:19.612Z,17.34
2018-07-09T03:16:49.124Z,17.34
2018-07-09T03:19:18.655Z,17.32
2018-07-09T03:21:47.466Z,17.31
2018-07-09T03:24:16.281Z,17.33
2018-07-09T03:26:45.177Z,17.36
2018-07-09T03:29:13.954Z,17.38
2018-07-09T03:31:42.882Z,17.34
2018-07-09T03:34:12.411Z,17.34
2018-07-09T03:36:42.055Z,17.36
2018-07-09T03:39:10.827Z,17.41
2018-07-09T03:41:39.654Z,17.45
2018-07-09T03:44:08.520Z,17.46
2018-07-09T03:46:37.378Z,17.45
2018-07-09T03:49:06.801Z,17.50
2018-07-09T03:51:37.093Z,17.54
2018-07-09T03:54:06.281Z,17.55
2018-07-09T03:56:36.387Z,17.58
2018-07-09T03:59:05.783Z,17.62
2018-07-09T04:01:35.712Z,17.63
2018-07-09T04:04:04.778Z,17.65
2018-07-09T04:06:33.691Z,17.71
2018-07-09T04:09:03.627Z,17.78
2018-07-09T04:11:32.562Z,17.85
2018-07-09T04:14:02.763Z,17.93
2018-07-09T04:16:32.422Z,17.97
2018-07-09T04:19:02.329Z,18.04
2018-07-09T04:21:31.108Z,18.13
2018-07-09T04:23:59.923Z,18.14
2018-07-09T04:26:28.711Z,18.17
2018-07-09T04:28:57.978Z,18.20
2018-07-09T04:31:26.906Z,18.24
2018-07-09T04:33:56.204Z,18.31
2018-07-09T04:36:25.723Z,18.40
2018-07-09T04:38:54.528Z,18.47
2018-07-09T04:41:23.334Z,18.55
2018-07-09T04:43:52.141Z,18.61
2018-07-09T04:46:20.898Z,18.67
2018-07-09T04:48:50.050Z,18.75
2018-07-09T04:51:18.858Z,18.85
2018-07-09T04:53:48.382Z,18.97
2018-07-09T04:56:17.710Z,19.11
2018-07-09T04:58:46.467Z,19.22
2018-07-09T05:01:15.238Z,19.36
2018-07-09T05:03:44.101Z,19.52
2018-07-09T05:06:12.985Z,19.70
2018-07-09T05:08:42.951Z,19.85
2018-07-09T05:11:11.810Z,19.99
2018-07-09T05:13:41.507Z,20.08
2018-07-09T05:16:11.068Z,20.20
2018-07-09T05:18:40.574Z,20.32
2018-07-09T05:21:09.372Z,20.43
2018-07-09T05:23:38.164Z,20.45
2018-07-09T05:26:08.102Z,20.47
2018-07-09T05:28:37.099Z,20.52
2018-07-09T05:31:06.458Z,20.59
2018-07-09T05:33:36.332Z,20.69
2018-07-09T05:36:06.335Z,20.84
2018-07-09T05:38:35.529Z,21.02
2018-07-09T05:41:04.890Z,21.18
2018-07-09T05:43:33.858Z,21.35
2018-07-09T05:46:02.712Z,21.50
2018-07-09T05:48:31.669Z,21.64
2018-07-09T05:51:00.774Z,21.85
2018-07-09T05:53:30.454Z,21.97
2018-07-09T05:56:00.969Z,22.06
2018-07-09T05:58:29.746Z,22.20
2018-07-09T06:00:58.620Z,22.45
2018-07-09T06:03:27.420Z,22.62
2018-07-09T06:05:57.455Z,22.79
2018-07-09T06:08:27.072Z,22.96
2018-07-09T06:10:55.854Z,23.12
2018-07-09T06:13:25.586Z,23.23
2018-07-09T06:15:55.451Z,23.34
2018-07-09T06:18:25.295Z,23.43
2018-07-09T06:20:54.144Z,23.57
2018-07-09T06:23:22.992Z,23.65
2018-07-09T06:25:51.778Z,23.81
2018-07-09T06:28:20.643Z,23.90
2018-07-09T06:30:49.599Z,24.15
2018-07-09T06:33:19.321Z,24.31
2018-07-09T06:35:48.704Z,24.45
2018-07-09T06:38:17.535Z,24.54
2018-07-09T06:40:46.315Z,24.67
2018-07-09T06:43:15.147Z,24.73
2018-07-09T06:45:45.000Z,24.70
2018-07-09T06:48:13.838Z,24.59
2018-07-09T06:50:42.661Z,24.51
2018-07-09T06:53:12.102Z,24.54
2018-07-09T06:55:42.165Z,24.56
2018-07-09T06:58:10.995Z,24.55
2018-07-09T07:00:39.803Z,24.52
2018-07-09T07:03:08.938Z,24.53
2018-07-09T07:05:37.744Z,24.59
2018-07-09T07:08:07.431Z,24.66
2018-07-09T07:10:36.707Z,24.71
2018-07-09T07:13:07.399Z,24.86
2018-07-09T07:15:37.513Z,24.83
2018-07-09T07:18:07.634Z,24.89
2018-07-09T07:20:37.362Z,25.02
2018-07-09T07:23:06.940Z,25.15
2018-07-09T07:25:36.544Z,25.33
2018-07-09T07:28:05.831Z,25.41
2018-07-09T07:30:34.823Z,25.53
2018-07-09T07:33:05.255Z,25.69
2018-07-09T07:35:35.097Z,25.80
2018-07-09T07:38:04.677Z,25.98
2018-07-09T07:40:33.737Z,26.20
2018-07-09T07:43:02.599Z,26.39
2018-07-09T07:45:31.402Z,26.58
2018-07-09T07:48:00.280Z,26.77
2018-07-09T07:50:29.134Z,27.01
2018-07-09T07:52:59.601Z,27.19
2018-07-09T07:55:29.258Z,27.23
2018-07-09T07:57:58.787Z,27.29
2018-07-09T08:00:27.550Z,27.29
2018-07-09T08:02:56.400Z,27.34
2018-07-09T08:05:25.251Z,27.37
2018-07-09T08:07:54.705Z,27.38
2018-07-09T08:10:23.483Z,27.42
2018-07-09T08:13:13.485Z,27.45
2018-07-09T08:15:22.534Z,27.55
2018-07-09T08:17:51.838Z,27.59
2018-07-09T08:20:21.450Z,27.56
2018-07-09T08:22:50.253Z,27.51
2018-07-09T08:25:19.157Z,27.47
2018-07-09T08:27:47.867Z,27.46
2018-07-09T08:30:16.754Z,27.35
2018-07-09T08:32:45.775Z,27.36
2018-07-09T08:35:15.510Z,27.37
2018-07-09T08:37:44.295Z,27.34
2018-07-09T08:40:13.499Z,27.30
2018-07-09T08:42:43.014Z,27.15
2018-07-09T08:45:12.503Z,27.05
2018-07-09T08:47:41.511Z,26.86
2018-07-09T08:50:10.263Z,26.78
2018-07-09T08:52:40.092Z,26.72
2018-07-09T08:55:08.874Z,26.68
2018-07-09T08:57:38.514Z,26.70
2018-07-09T09:00:07.611Z,26.68
2018-07-09T09:02:36.872Z,26.77
2018-07-09T09:05:06.207Z,26.78
2018-07-09T09:07:36.262Z,26.82
2018-07-09T09:10:06.437Z,26.95
2018-07-09T09:12:35.693Z,26.99
2018-07-09T09:15:05.863Z,27.12
2018-07-09T09:17:35.751Z,27.23
2018-07-09T09:20:07.315Z,27.27
2018-07-09T09:22:36.607Z,27.35
2018-07-09T09:25:05.702Z,27.46
2018-07-09T09:27:34.906Z,27.61
2018-07-09T09:30:03.943Z,27.74
2018-07-09T09:32:32.785Z,27.79
2018-07-09T09:35:02.630Z,27.83
2018-07-09T09:37:31.490Z,27.70
2018-07-09T09:40:00.267Z,27.60
2018-07-09T09:42:29.078Z,27.49
2018-07-09T09:44:57.854Z,27.55
2018-07-09T09:47:26.860Z,27.74
2018-07-09T09:49:55.693Z,27.79
2018-07-09T09:52:25.386Z,27.98
2018-07-09T09:54:55.298Z,28.12
2018-07-09T09:57:24.879Z,28.29
2018-07-09T09:59:53.650Z,28.50
2018-07-09T10:02:22.399Z,28.67
2018-07-09T10:04:51.234Z,28.64
2018-07-09T10:07:20.909Z,28.55
2018-07-09T10:09:50.283Z,28.71
2018-07-09T10:12:19.067Z,28.63
2018-07-09T10:14:48.426Z,28.58
2018-07-09T10:17:17.832Z,28.29
2018-07-09T10:19:47.445Z,28.13
2018-07-09T10:22:16.303Z,28.11
2018-07-09T10:24:45.120Z,27.98
2018-07-09T10:27:13.973Z,28.21
2018-07-09T10:29:43.045Z,28.09
2018-07-09T10:32:11.930Z,28.13
2018-07-09T10:34:41.969Z,28.02
2018-07-09T10:37:10.870Z,27.83
2018-07-09T10:39:39.778Z,27.58
2018-07-09T10:42:09.163Z,27.59
2018-07-09T10:44:38.043Z,27.54
2018-07-09T10:47:07.090Z,27.56
2018-07-09T10:49:36.739Z,27.53
2018-07-09T10:52:06.920Z,27.58
2018-07-09T10:54:36.387Z,27.61
2018-07-09T10:57:06.406Z,27.42
2018-07-09T10:59:35.645Z,27.42
2018-07-09T11:02:05.512Z,27.60
2018-07-09T11:04:34.764Z,27.66
2018-07-09T11:07:04.871Z,27.65
2018-07-09T11:09:35.369Z,27.61
2018-07-09T11:12:04.704Z,27.52
2018-07-09T11:14:34.424Z,27.31
2018-07-09T11:17:04.059Z,27.24
2018-07-09T11:19:34.293Z,27.26
2018-07-09T11:22:03.160Z,27.22
2018-07-09T11:24:32.155Z,27.26
2018-07-09T11:27:00.926Z,27.26
2018-07-09T11:29:30.894Z,27.23
2018-07-09T11:31:59.824Z,27.25
2018-07-09T11:34:28.698Z,27.30
2018-07-09T11:36:58.027Z,27.33
2018-07-09T11:39:27.103Z,27.36
2018-07-09T11:41:55.850Z,27.43
2018-07-09T11:44:24.765Z,27.53
2018-07-09T11:46:53.527Z,27.57
2018-07-09T11:49:22.388Z,27.73
2018-07-09T11:51:51.939Z,27.68
2018-07-09T11:54:21.359Z,27.80
2018-07-09T11:56:50.859Z,27.82
2018-07-09T11:59:19.652Z,27.74
2018-07-09T12:01:49.067Z,27.71
2018-07-09T12:04:17.882Z,27.68
2018-07-09T12:06:46.670Z,27.59
2018-07-09T12:09:16.295Z,27.46
2018-07-09T12:11:45.070Z,27.31
2018-07-09T12:14:14.442Z,27.31
2018-07-09T12:16:44.212Z,27.34
2018-07-09T12:19:13.763Z,27.21
2018-07-09T12:21:42.585Z,27.17
2018-07-09T12:24:11.354Z,27.09
2018-07-09T12:26:40.471Z,27.00
2018-07-09T12:29:09.434Z,27.04
2018-07-09T12:31:38.909Z,27.02
2018-07-09T12:34:07.744Z,26.85
2018-07-09T12:36:37.474Z,26.63
2018-07-09T12:39:07.154Z,26.63
2018-07-09T12:41:36.529Z,26.57
2018-07-09T12:44:05.718Z,26.35
2018-07-09T12:46:35.084Z,26.25
2018-07-09T12:49:04.447Z,26.27
2018-07-09T12:51:34.609Z,26.07
2018-07-09T12:54:04.677Z,26.05
2018-07-09T12:56:34.803Z,26.23
2018-07-09T12:59:06.158Z,26.32
2018-07-09T13:01:35.260Z,26.33
2018-07-09T13:04:04.676Z,26.37
2018-07-09T13:06:33.679Z,26.46
2018-07-09T13:09:03.603Z,26.44
2018-07-09T13:11:32.395Z,26.27
2018-07-09T13:14:01.676Z,26.18
2018-07-09T13:16:30.906Z,26.29
2018-07-09T13:19:00.467Z,26.29
2018-07-09T13:21:29.242Z,26.25
2018-07-09T13:23:58.045Z,26.19
2018-07-09T13:26:26.956Z,25.97
2018-07-09T13:28:56.010Z,25.83
2018-07-09T13:31:24.969Z,25.77
2018-07-09T13:33:54.319Z,25.78
2018-07-09T13:36:24.028Z,25.82
2018-07-09T13:38:52.834Z,25.85
2018-07-09T13:41:21.634Z,25.57
2018-07-09T13:43:50.786Z,25.45
2018-07-09T13:46:19.544Z,25.43
2018-07-09T13:48:48.668Z,25.51
2018-07-09T13:51:17.883Z,25.53
2018-07-09T13:53:47.807Z,25.55
2018-07-09T13:56:17.432Z,25.61
2018-07-09T13:58:46.298Z,25.56
2018-07-09T14:01:15.070Z,25.66
2018-07-09T14:03:44.898Z,25.68
2018-07-09T14:06:13.665Z,25.66
2018-07-09T14:08:43.190Z,25.63
2018-07-09T14:11:11.982Z,25.71
2018-07-09T14:13:41.637Z,25.67
2018-07-09T14:16:11.275Z,25.60
2018-07-09T14:18:41.048Z,25.49
2018-07-09T14:21:10.263Z,25.45
2018-07-09T14:23:38.991Z,25.40
2018-07-09T14:26:07.819Z,25.19
2018-07-09T14:28:37.078Z,25.24
2018-07-09T14:31:07.259Z,25.19
2018-07-09T14:33:36.761Z,25.07
2018-07-09T14:36:07.403Z,24.88
2018-07-09T14:38:36.555Z,24.60
2018-07-09T14:41:05.754Z,24.44
2018-07-09T14:43:34.814Z,24.33
2018-07-09T14:46:03.749Z,24.40
2018-07-09T14:48:32.747Z,24.37
2018-07-09T14:51:01.582Z,24.31
2018-07-09T14:53:31.127Z,24.45
2018-07-09T14:56:00.801Z,24.45
2018-07-09T14:58:29.554Z,24.34
2018-07-09T15:00:58.342Z,24.28
2018-07-09T15:03:27.171Z,24.24
2018-07-09T15:05:55.954Z,24.29
2018-07-09T15:08:25.363Z,24.45
2018-07-09T15:10:54.155Z,24.58
2018-07-09T15:13:23.843Z,24.66
2018-07-09T15:15:52.616Z,24.72
2018-07-09T15:18:22.228Z,24.80
2018-07-09T15:20:50.997Z,24.90
2018-07-09T15:23:19.785Z,24.93
2018-07-09T15:25:48.600Z,24.99
2018-07-09T15:28:17.355Z,24.97
2018-07-09T15:30:46.527Z,24.94
2018-07-09T15:33:15.381Z,25.08
2018-07-09T15:35:44.990Z,25.08
2018-07-09T15:38:13.799Z,25.04
2018-07-09T15:40:43.303Z,24.93
2018-07-09T15:43:12.145Z,25.03
2018-07-09T15:45:40.940Z,25.16
2018-07-09T15:48:09.910Z,25.20
2018-07-09T15:50:38.675Z,25.03
2018-07-09T15:53:08.112Z,25.86
2018-07-09T15:55:38.096Z,26.52
2018-07-09T15:58:08.064Z,27.53
2018-07-09T16:00:37.151Z,28.36
2018-07-09T16:03:06.350Z,28.99
2018-07-09T16:05:35.491Z,29.49
2018-07-09T16:08:06.272Z,29.82
2018-07-09T16:10:35.428Z,30.38
2018-07-09T16:13:05.044Z,30.98
2018-07-09T16:15:33.808Z,31.26
2018-07-09T16:18:03.652Z,31.56
2018-07-09T16:20:32.510Z,31.65
2018-07-09T16:23:01.266Z,31.65
2018-07-09T16:25:30.119Z,31.78
2018-07-09T16:27:58.869Z,32.05
2018-07-09T16:30:27.766Z,32.26
2018-07-09T16:32:56.686Z,31.72
2018-07-09T16:35:26.650Z,31.17
2018-07-09T16:37:55.663Z,30.23
2018-07-09T16:40:24.550Z,29.32
2018-07-09T16:42:53.413Z,28.66
2018-07-09T16:45:22.200Z,28.02
2018-07-09T16:47:51.301Z,27.20
2018-07-09T16:50:20.218Z,26.63
2018-07-09T16:52:49.983Z,26.27
2018-07-09T16:55:18.786Z,25.94
2018-07-09T16:57:48.463Z,25.74
2018-07-09T17:00:17.249Z,25.41
2018-07-09T17:02:46.061Z,25.88
2018-07-09T17:05:14.895Z,26.35
2018-07-09T17:07:44.503Z,26.47
2018-07-09T17:10:13.256Z,26.03
2018-07-09T17:12:42.121Z,25.82
2018-07-09T17:15:11.908Z,25.88
2018-07-09T17:17:41.270Z,25.72
2018-07-09T17:20:11.125Z,25.38
2018-07-09T17:22:39.997Z,25.14
2018-07-09T17:25:09.126Z,24.82
2018-07-09T17:27:38.288Z,24.60
2018-07-09T17:30:07.313Z,24.54
2018-07-09T17:32:37.402Z,24.80
2018-07-09T17:35:07.543Z,25.02
2018-07-09T17:37:36.464Z,25.41
2018-07-09T17:40:05.348Z,26.19
2018-07-09T17:42:34.248Z,26.86
2018-07-09T17:45:03.088Z,26.98
2018-07-09T17:47:32.182Z,26.08
2018-07-09T17:50:01.305Z,25.42
2018-07-09T17:52:30.934Z,24.88
2018-07-09T17:54:59.777Z,24.22
2018-07-09T17:57:29.503Z,23.67
2018-07-09T17:59:58.316Z,23.24
2018-07-09T18:02:27.078Z,22.92
2018-07-09T18:04:55.925Z,22.65
2018-07-09T18:07:25.379Z,22.43
2018-07-09T18:09:54.164Z,22.15
2018-07-09T18:12:22.915Z,22.00
2018-07-09T18:14:52.655Z,21.91
2018-07-09T18:17:22.386Z,21.86
2018-07-09T18:19:51.756Z,21.75
2018-07-09T18:22:20.531Z,21.62
2018-07-09T18:24:49.339Z,21.53
2018-07-09T18:27:18.122Z,21.48
2018-07-09T18:29:46.881Z,21.44
2018-07-09T18:32:15.802Z,21.46
2018-07-09T18:34:45.208Z,21.40
2018-07-09T18:37:14.064Z,21.37
2018-07-09T18:39:42.883Z,21.36
2018-07-09T18:42:11.663Z,21.30
2018-07-09T18:44:40.674Z,21.26
2018-07-09T18:47:09.848Z,21.23
2018-07-09T18:49:39.097Z,21.16
2018-07-09T18:52:08.866Z,21.09
2018-07-09T18:54:37.886Z,21.03
2018-07-09T18:57:07.700Z,20.97
2018-07-09T18:59:36.624Z,20.91
2018-07-09T19:02:05.452Z,20.85
2018-07-09T19:04:34.292Z,20.78
2018-07-09T19:07:08.510Z,20.71
2018-07-09T19:09:39.502Z,20.64
2018-07-09T19:12:09.438Z,20.58
2018-07-09T19:14:44.938Z,20.53
2018-07-09T19:17:58.403Z,20.46
2018-07-09T19:20:38.653Z,20.34
2018-07-09T19:23:07.172Z,20.29
2018-07-09T19:25:35.527Z,20.23
2018-07-09T19:28:03.782Z,20.15
2018-07-09T19:30:31.272Z,20.11
2018-07-09T19:32:58.726Z,20.05
2018-07-09T19:35:28.116Z,19.99
2018-07-09T19:37:55.920Z,19.89
2018-07-09T19:40:22.943Z,19.84
2018-07-09T19:42:50.378Z,19.74
2018-07-09T19:45:17.749Z,19.68
2018-07-09T19:47:45.331Z,19.64
2018-07-09T19:50:12.737Z,19.59
2018-07-09T19:52:41.196Z,19.52
2018-07-09T19:55:08.790Z,19.48
2018-07-09T19:57:36.959Z,19.44
2018-07-09T20:00:04.722Z,19.39
2018-07-09T20:02:32.108Z,19.38
2018-07-09T20:04:59.549Z,19.35
2018-07-09T20:07:28.028Z,19.32
2018-07-09T20:11:03.947Z,19.27
2018-07-09T20:14:02.677Z,19.18
2018-07-09T20:16:35.999Z,19.12
2018-07-09T20:19:04.186Z,19.05
2018-07-09T20:21:31.610Z,19.01
2018-07-09T20:23:59.490Z,18.97
2018-07-09T20:26:26.946Z,18.93
2018-07-09T20:28:54.309Z,18.88
2018-07-09T20:31:22.070Z,18.83
2018-07-09T20:33:49.495Z,18.75
2018-07-09T20:36:18.028Z,18.72
2018-07-09T20:38:45.466Z,18.69
2018-07-09T20:41:12.953Z,18.63
2018-07-09T20:43:40.358Z,18.59
2018-07-09T20:46:07.948Z,18.57
2018-07-09T20:48:35.396Z,18.52
2018-07-09T20:51:02.833Z,18.47
2018-07-09T20:53:31.247Z,18.46
2018-07-09T20:55:59.307Z,18.43
2018-07-09T20:58:26.706Z,18.39
2018-07-09T21:00:54.102Z,18.34
2018-07-09T21:03:21.554Z,18.31
2018-07-09T21:05:48.921Z,18.28
2018-07-09T21:08:17.035Z,18.25
2018-07-09T21:10:44.425Z,18.21
2018-07-09T21:13:12.470Z,18.15
2018-07-09T21:15:39.852Z,18.10
2018-07-09T21:18:07.892Z,18.06
2018-07-09T21:20:35.287Z,18.01
2018-07-09T21:23:02.657Z,17.97
2018-07-09T21:25:30.098Z,17.93
2018-07-09T21:27:57.465Z,17.90
2018-07-09T21:30:24.882Z,17.85
2018-07-09T21:32:52.322Z,17.78
2018-07-09T21:35:20.411Z,17.74
2018-07-09T21:37:47.892Z,17.70
2018-07-09T21:40:15.239Z,17.68
2018-07-09T21:42:42.662Z,17.66
2018-07-09T21:45:10.108Z,17.64
2018-07-09T21:47:37.988Z,17.62
2018-07-09T21:50:05.458Z,17.57
2018-07-09T21:52:33.674Z,17.54
2018-07-09T21:55:01.056Z,17.49
2018-07-09T21:57:29.166Z,17.45
2018-07-09T21:59:56.570Z,17.39
2018-07-09T22:02:23.950Z,17.36
2018-07-09T22:04:51.348Z,17.31
2018-07-09T22:07:19.410Z,17.28
2018-07-09T22:09:47.011Z,17.22
2018-07-09T22:12:14.384Z,17.19
2018-07-09T22:14:42.510Z,17.15
2018-07-09T22:17:10.825Z,17.14
2018-07-09T22:19:39.227Z,17.11
2018-07-09T22:22:07.053Z,17.09
2018-07-09T22:24:34.487Z,17.05
2018-07-09T22:27:01.887Z,17.02
2018-07-09T22:29:29.401Z,17.00
2018-07-09T22:31:58.292Z,16.97
2018-07-09T22:34:27.051Z,16.97
2018-07-09T22:36:56.406Z,16.92
2018-07-09T22:39:25.188Z,16.91
2018-07-09T22:41:53.926Z,16.89
2018-07-09T22:44:23.191Z,16.88
2018-07-09T22:46:51.931Z,16.85
2018-07-09T22:49:20.793Z,16.83
2018-07-09T22:51:50.459Z,16.81
2018-07-09T22:54:19.206Z,16.79
2018-07-09T22:56:48.367Z,16.76
2018-07-09T22:59:17.189Z,16.76
2018-07-09T23:01:46.333Z,16.72
2018-07-09T23:04:15.085Z,16.71
2018-07-09T23:06:43.888Z,16.69
2018-07-09T23:09:56.146Z,16.68
2018-07-09T23:12:39.594Z,16.63
2018-07-09T23:15:30.650Z,16.61
2018-07-09T23:18:11.418Z,16.58
2018-07-09T23:22:48.946Z,16.55
2018-07-09T23:25:16.366Z,16.48
2018-07-09T23:27:43.750Z,16.45
2018-07-09T23:30:11.292Z,16.41
2018-07-09T23:32:39.657Z,16.42
2018-07-09T23:35:07.839Z,16.40
2018-07-09T23:37:35.233Z,16.38
2018-07-09T23:40:02.663Z,16.39
2018-07-09T23:42:30.096Z,16.36
2018-07-09T23:44:57.485Z,16.36
2018-07-09T23:47:24.917Z,16.36
2018-07-09T23:49:52.318Z,16.36
2018-07-09T23:52:20.767Z,16.35
2018-07-09T23:54:48.185Z,16.35
2018-07-09T23:57:31.011Z,16.33
